Latest Weather Observations for Trangie

IDN60801

Issued at 10:05 pm EST Wednesday 20 August 2014 (issued every 30 minutes, with the page automatically refreshed every 10 minutes)

About weather observations | Map of weather stations | Latest weather observations for NSW | Other Formats
Station Details ID: 051049 Name: TRANGIE RESEARCH STATION AWS Lat: -31.99 Lon: 147.95 Height: 215.0 m
Data from the previous 72 hours. | See also: Recent months at Trangie
Date/Time
EST
Temp
°C
App
Temp
°C
Dew
Point
Rel
Hum
%
Delta-T
°C
Wind Press
QNH
hPa
Press
MSL
hPa
Rain
since 9 am
mm
Dir
 
Spd
km/h
Gust
km/h
Spd
kts
Gust
kts
20/10:00pm 7.1 4.7 4.4 83 1.2 SE 6 9 3 5 1025.2 - 0.0
20/09:30pm 8.1 5.2 4.7 79 1.5 SSE 9 13 5 7 1024.9 - 0.0
20/09:00pm 8.6 6.1 4.8 77 1.7 SSE 7 11 4 6 1024.8 1025.1 0.0
20/08:30pm 9.5 7.1 5.3 75 1.9 SSE 7 9 4 5 1024.6 - 0.0
20/08:00pm 8.9 6.5 5.1 77 1.7 S 7 9 4 5 1024.4 - 0.0
20/07:30pm 9.1 6.8 4.9 75 1.9 SSE 6 9 3 5 1024.2 - 0.0
20/07:00pm 9.6 7.3 4.8 72 2.2 SSE 6 7 3 4 1023.9 - 0.0
20/06:30pm 10.5 8.1 5.1 69 2.5 S 7 9 4 5 1023.8 - 0.0
20/06:00pm 11.8 9.5 5.0 63 3.1 S 6 7 3 4 1023.5 1023.7 0.0
20/05:30pm 14.1 11.5 4.1 51 4.6 SSE 7 11 4 6 1023.1 - 0.0
20/05:00pm 15.8 12.3 3.6 44 5.7 SSE 11 19 6 10 1022.7 - 0.0
20/04:30pm 16.6 13.3 4.3 44 5.8 SSE 11 19 6 10 1022.5 - 0.0
20/04:00pm 16.9 13.6 4.3 43 6.0 SE 11 20 6 11 1022.5 - 0.0
20/03:30pm 16.9 13.6 4.3 43 6.0 SE 11 19 6 10 1022.7 - 0.0
20/03:00pm 17.1 14.0 5.4 46 5.7 SSE 11 19 6 10 1022.8 1023.1 0.0
20/02:30pm 16.7 12.7 4.7 45 5.7 S 15 28 8 15 1022.9 - 0.0
20/02:00pm 16.4 11.6 4.4 45 5.7 SSE 19 28 10 15 1023.0 - 0.0
20/01:30pm 16.3 13.3 4.0 44 5.8 E 9 15 5 8 1023.4 - 0.0
20/01:00pm 16.4 13.6 5.1 47 5.4 ESE 9 15 5 8 1023.7 - 0.0
20/12:30pm 16.1 12.5 4.8 47 5.4 ENE 13 20 7 11 1024.2 - 0.0
20/12:00pm 15.6 12.3 4.6 48 5.2 NE 11 17 6 9 1024.6 1024.9 0.0
20/11:30am 15.0 11.8 5.0 51 4.8 ENE 11 20 6 11 1025.0 - 0.0
20/11:00am 14.8 11.3 5.6 54 4.4 ENE 13 20 7 11 1025.1 - 0.0
20/10:30am 14.0 10.9 5.6 57 4.0 ENE 11 19 6 10 1025.2 - 0.0
20/10:00am 12.9 10.0 6.3 64 3.2 E 11 19 6 10 1025.3 - 0.0
20/09:30am 11.8 8.2 5.0 63 3.2 E 13 19 7 10 1025.3 - 0.0
20/09:00am 11.0 7.9 5.7 70 2.5 E 11 17 6 9 1025.1 1025.4 0.2
20/08:30am 9.6 6.5 5.6 76 1.8 ESE 11 17 6 9 1025.0 - 0.2
20/08:00am 8.4 5.8 6.0 85 1.1 E 9 15 5 8 1024.7 - 0.2
20/07:30am 6.1 3.9 6.0 99 0.0 E 7 11 4 6 1024.2 - 0.2
20/07:00am 4.1 1.6 4.0 99 0.0 E 6 9 3 5 1023.7 - 0.2
20/06:30am 4.3 1.9 4.2 99 0.0 ESE 6 9 3 5 1023.5 - 0.2
20/06:00am 3.6 0.9 3.5 99 0.0 SE 7 9 4 5 1023.1 1023.4 0.2
20/05:30am 4.3 1.9 4.2 99 0.0 ESE 6 7 3 4 1022.7 - 0.2
20/05:00am 4.2 1.8 4.1 99 0.0 SE 6 7 3 4 1022.6 - 0.0
20/04:30am 4.7 3.1 4.6 99 0.0 SE 2 6 1 3 1022.3 - 0.0
20/04:00am 4.4 2.0 4.1 98 0.1 S 6 9 3 5 1022.1 - 0.0
20/03:30am 5.6 3.8 5.5 99 0.0 SE 4 7 2 4 1021.7 - 0.0
20/03:00am 5.6 3.4 5.5 99 0.0 SE 6 7 3 4 1021.6 1021.9 0.0
20/02:30am 5.7 4.7 5.6 99 0.0 CALM 0 6 0 3 1021.6 - 0.0
20/02:00am 5.9 4.2 5.8 99 0.0 SE 4 6 2 3 1021.6 - 0.0
20/01:30am 6.3 5.4 6.2 99 0.0 CALM 0 4 0 2 1021.6 - 0.0
20/01:00am 5.5 4.1 5.4 99 0.0 SSE 2 7 1 4 1021.5 - 0.0
20/12:30am 5.4 3.5 5.1 98 0.1 S 4 6 2 3 1021.4 - 0.0
20/12:00am 5.4 3.1 4.8 96 0.3 S 6 9 3 5 1021.4 1021.7 0.0
 
Date/Time
EST
Temp
°C
App
Temp
°C
Dew
Point
Rel
Hum
%
Delta-T
°C
Wind Press
QNH
hPa
Press
MSL
hPa
Rain
since 9 am
mm
Dir
 
Spd
km/h
Gust
km/h
Spd
kts
Gust
kts
19/11:30pm 5.7 3.4 4.8 94 0.4 SSW 6 7 3 4 1021.5 - 0.0
19/11:00pm 6.6 4.8 5.6 93 0.4 SSE 4 7 2 4 1021.5 - 0.0
19/10:30pm 7.1 5.7 5.7 91 0.6 SSE 2 6 1 3 1021.4 - 0.0
19/10:00pm 7.9 6.6 6.0 88 0.9 SE 2 7 1 4 1021.5 - 0.0
19/09:30pm 9.0 7.1 6.8 86 1.0 E 6 7 3 4 1021.5 - 0.0
19/09:00pm 9.6 7.2 6.9 83 1.3 SSW 9 13 5 7 1021.5 1021.8 0.0
19/08:30pm 10.7 9.4 7.8 82 1.4 S 4 13 2 7 1021.1 - 0.0
19/08:00pm 10.0 8.2 7.1 82 1.4 S 6 7 3 4 1021.1 - 0.0
19/07:30pm 10.9 8.3 7.6 80 1.6 S 11 15 6 8 1020.6 - 0.0
19/07:00pm 11.1 8.6 8.0 81 1.5 S 11 15 6 8 1020.3 - 0.0
19/06:30pm 11.6 9.5 8.3 80 1.6 S 9 13 5 7 1019.9 - 0.0
19/06:00pm 12.2 10.1 8.3 77 1.9 SSW 9 13 5 7 1019.6 1019.8 0.0
19/05:30pm 13.6 11.5 8.2 70 2.7 SSW 9 13 5 7 1019.4 - 0.0
19/05:00pm 15.1 11.4 7.9 62 3.6 S 17 24 9 13 1019.1 - 0.0
19/04:30pm 16.8 13.7 7.4 54 4.8 S 13 26 7 14 1018.8 - 0.0
19/04:00pm 16.9 12.7 7.3 53 4.8 S 19 30 10 16 1018.5 - 0.0
19/03:30pm 17.2 13.2 8.1 55 4.7 S 19 30 10 16 1018.4 - 0.0
19/03:00pm 17.0 12.8 7.6 54 4.8 S 19 28 10 15 1018.2 1018.5 0.0
19/02:30pm 16.8 13.9 8.2 57 4.4 S 13 22 7 12 1018.1 - 0.0
19/02:00pm 15.9 12.1 7.7 58 4.1 S 17 28 9 15 1018.0 - 0.0
19/01:30pm 16.1 12.4 7.8 58 4.2 S 17 26 9 14 1018.0 - 0.0
19/01:00pm 16.7 12.6 8.7 59 4.1 S 20 30 11 16 1018.2 - 0.0
19/12:30pm 15.4 11.6 9.1 66 3.3 S 19 28 10 15 1018.5 - 0.0
19/12:00pm 14.0 11.2 10.0 77 2.1 S 15 20 8 11 1018.9 1019.1 0.0
19/11:30am 13.4 10.2 9.8 79 1.9 SSW 17 20 9 11 1019.2 - 0.0
19/11:00am 13.2 10.4 10.0 81 1.7 S 15 20 8 11 1019.4 - 0.0
19/10:30am 12.4 9.9 9.8 84 1.3 S 13 19 7 10 1019.5 - 0.0
19/10:00am 11.5 9.4 9.9 90 0.8 S 11 15 6 8 1019.5 - 0.0
19/09:30am 11.2 7.8 9.3 88 1.0 S 17 24 9 13 1019.4 - 0.0
19/09:00am 11.0 7.7 9.6 91 0.7 S 17 24 9 13 1019.2 1019.4 1.0
19/08:30am 10.7 7.7 9.3 91 0.7 S 15 20 8 11 1019.0 - 1.0
19/08:00am 10.4 7.5 9.5 94 0.5 S 15 20 8 11 1018.6 - 1.0
19/07:30am 10.1 7.1 9.3 95 0.4 SSW 15 20 8 11 1017.9 - 1.0
19/07:00am 9.8 6.8 9.3 97 0.3 SSW 15 20 8 11 1017.6 - 1.0
19/06:30am 9.6 7.0 9.3 98 0.2 SSW 13 20 7 11 1017.3 - 1.0
19/06:00am 9.4 6.7 9.1 98 0.1 SSW 13 19 7 10 1016.9 1017.2 1.0
19/05:30am 9.7 6.7 9.1 96 0.3 SSW 15 20 8 11 1016.5 - 1.0
19/05:00am 10.0 6.7 9.4 96 0.3 SSW 17 24 9 13 1016.5 - 1.0
19/04:30am 10.2 7.2 9.3 94 0.5 SSW 15 22 8 12 1016.3 - 1.0
19/04:00am 10.6 7.6 9.2 91 0.7 SSW 15 20 8 11 1016.2 - 1.0
19/03:30am 10.7 7.3 9.1 90 0.8 SSW 17 22 9 12 1016.1 - 1.0
19/03:00am 10.7 7.3 9.3 91 0.7 SW 17 20 9 11 1016.0 1016.2 1.0
19/02:30am 10.8 8.2 9.2 90 0.8 SSW 13 17 7 9 1015.9 - 1.0
19/02:00am 11.0 8.0 9.3 89 0.9 SW 15 20 8 11 1016.0 - 1.0
19/01:30am 11.3 8.3 9.4 88 1.0 SW 15 20 8 11 1015.9 - 1.0
19/01:00am 11.5 8.2 9.4 87 1.1 SW 17 22 9 12 1015.9 - 1.0
19/12:30am 11.5 8.6 9.6 88 1.0 SW 15 20 8 11 1015.9 - 1.0
19/12:00am 11.6 8.3 9.7 88 1.0 WSW 17 20 9 11 1015.8 1016.0 1.0
 
Date/Time
EST
Temp
°C
App
Temp
°C
Dew
Point
Rel
Hum
%
Delta-T
°C
Wind Press
QNH
hPa
Press
MSL
hPa
Rain
since 9 am
mm
Dir
 
Spd
km/h
Gust
km/h
Spd
kts
Gust
kts
18/11:30pm 11.9 9.0 9.8 87 1.1 WSW 15 20 8 11 1015.9 - 1.0
18/11:00pm 12.0 8.8 9.9 87 1.1 WSW 17 20 9 11 1015.9 - 1.0
18/10:30pm 12.2 9.0 9.9 86 1.2 WSW 17 20 9 11 1015.9 - 1.0
18/10:00pm 11.9 9.5 10.0 88 1.0 WSW 13 17 7 9 1015.9 - 1.0
18/09:30pm 12.1 9.3 10.0 87 1.1 WSW 15 20 8 11 1015.6 - 1.0
18/09:00pm 11.9 9.1 10.0 88 1.0 WSW 15 19 8 10 1015.4 1015.6 1.0
18/08:30pm 12.3 9.5 9.9 85 1.2 WSW 15 19 8 10 1015.2 - 1.0
18/08:00pm 12.7 9.9 10.1 84 1.4 WSW 15 20 8 11 1015.1 - 1.0
18/07:30pm 12.6 9.9 10.3 86 1.2 SW 15 19 8 10 1014.8 - 1.0
18/07:00pm 12.8 10.1 10.3 85 1.3 WSW 15 20 8 11 1014.6 - 1.0
18/06:30pm 12.5 10.3 10.9 90 0.8 WSW 13 15 7 8 1014.3 - 1.0
18/06:00pm 12.7 10.2 10.9 89 1.0 WSW 15 19 8 10 1013.9 1014.1 1.0
18/05:30pm 12.5 8.7 11.1 91 0.7 SW 22 39 12 21 1013.6 - 0.6
18/05:26pm 12.7 7.7 10.8 88 1.0 SW 28 46 15 25 1013.4 - 0.6
18/05:19pm 14.7 8.3 9.5 71 2.7 SW 33 46 18 25 1013.2 - 0.0
18/05:00pm 14.8 12.2 9.4 70 2.8 WSW 13 17 7 9 1012.8 - 0.0
18/04:30pm 15.2 11.4 8.9 66 3.2 SW 19 26 10 14 1012.4 - 0.0
18/04:00pm 15.5 11.4 8.5 63 3.6 SSW 20 28 11 15 1012.2 - 0.0
18/03:30pm 16.2 12.1 8.7 61 3.9 SSW 20 28 11 15 1011.9 - 0.0
18/03:00pm 16.3 12.1 8.3 59 4.1 SSW 20 30 11 16 1011.5 1011.7 0.0
18/02:30pm 15.9 11.4 8.4 61 3.8 SSW 22 32 12 17 1011.3 - 0.0
18/02:00pm 16.3 10.9 8.0 58 4.2 S 26 41 14 22 1011.0 - 0.0
18/01:30pm 16.6 10.8 8.1 57 4.4 SSW 28 46 15 25 1010.9 - 0.0
18/01:00pm 16.4 11.2 8.9 61 3.9 S 26 43 14 23 1011.0 - 0.0
18/12:30pm 15.9 9.6 8.9 63 3.6 SSW 32 43 17 23 1011.2 - 0.0
18/12:00pm 15.3 8.8 9.0 66 3.3 SW 33 43 18 23 1011.6 1011.8 0.0
18/11:30am 14.5 8.8 8.5 67 3.1 SSW 28 41 15 22 1011.8 - 0.0
18/11:00am 14.9 8.5 8.6 66 3.2 SW 32 41 17 22 1011.8 - 0.0
18/10:30am 14.5 8.3 9.5 72 2.6 SW 32 39 17 21 1011.8 - 0.0
18/10:00am 13.4 7.0 9.3 76 2.1 SW 33 46 18 25 1011.7 - 0.0
18/09:30am 12.5 6.3 9.3 81 1.6 SW 32 43 17 23 1011.5 - 0.0
18/09:00am 11.3 5.9 9.4 88 1.0 WSW 28 35 15 19 1011.6 1011.8 2.2
18/08:30am 10.8 6.2 9.6 92 0.6 WSW 24 32 13 17 1011.5 - 2.2
18/08:00am 10.3 5.6 9.4 94 0.5 WSW 24 33 13 18 1011.1 - 2.2
18/07:30am 9.5 5.2 9.2 98 0.1 W 22 30 12 16 1011.0 - 2.2
18/07:00am 9.3 5.3 9.2 99 0.0 W 20 28 11 15 1010.5 - 2.2
18/06:30am 9.4 5.0 9.1 98 0.1 W 22 30 12 16 1010.2 - 2.2
18/06:00am 9.6 5.0 9.5 99 0.1 W 24 32 13 17 1010.1 1010.3 2.2
18/05:30am 9.6 5.7 9.5 99 0.1 WSW 20 26 11 14 1009.8 - 2.2
18/05:00am 9.7 5.5 9.6 99 0.1 WSW 22 32 12 17 1009.6 - 2.2
18/04:30am 9.7 5.8 9.6 99 0.1 W 20 28 11 15 1009.5 - 2.2
18/04:00am 9.6 5.9 9.5 99 0.1 W 19 26 10 14 1009.4 - 2.2
18/03:30am 9.2 6.2 9.1 99 0.0 W 15 20 8 11 1009.4 - 2.0
18/03:00am 9.2 6.2 9.1 99 0.0 W 15 19 8 10 1009.7 1009.9 2.0
18/02:30am 9.0 6.3 8.9 99 0.0 W 13 17 7 9 1009.8 - 2.0
18/02:00am 9.0 5.5 8.9 99 0.0 SW 17 20 9 11 1009.9 - 1.8
18/01:30am 8.8 5.3 8.7 99 0.0 SW 17 20 9 11 1010.0 - 1.6
18/01:00am 8.5 4.9 8.4 99 0.0 SW 17 22 9 12 1010.2 - 1.2
18/12:30am 8.2 4.9 8.1 99 0.0 SW 15 19 8 10 1010.2 - 0.6
18/12:00am 7.7 4.3 7.6 99 0.0 SW 15 19 8 10 1010.1 1010.3 0.6
 
Date/Time
EST
Temp
°C
App
Temp
°C
Dew
Point
Rel
Hum
%
Delta-T
°C
Wind Press
QNH
hPa
Press
MSL
hPa
Rain
since 9 am
mm
Dir
 
Spd
km/h
Gust
km/h
Spd
kts
Gust
kts
17/11:30pm 6.4 3.5 6.3 99 0.0 WSW 11 13 6 7 1010.1 - 0.6
17/11:00pm 5.3 2.5 5.2 99 0.0 WSW 9 15 5 8 1010.2 - 0.6
17/10:30pm 5.2 2.4 5.1 99 0.0 WSW 9 13 5 7 1010.0 - 0.6

Other Formats:

Comma delimited format used in spreadsheet applications
http://www.bom.gov.au/fwo/IDN60801/IDN60801.95710.axf

JavaScript Object Notation format (JSON) in row-major order
http://www.bom.gov.au/fwo/IDN60801/IDN60801.95710.json